createdAt,value
2022-10-19T00:01:21.606Z,3.20
2022-10-19T00:03:52.802Z,2.70
2022-10-19T00:06:30.147Z,3.07
2022-10-19T00:09:01.482Z,3.40
2022-10-19T00:11:30.229Z,3.57
2022-10-19T00:13:58.868Z,3.67
2022-10-19T00:16:30.029Z,3.20
2022-10-19T00:18:59.318Z,3.40
2022-10-19T00:21:26.502Z,2.83
2022-10-19T00:23:53.647Z,3.10
2022-10-19T00:26:20.587Z,3.03
2022-10-19T00:28:47.433Z,3.20
2022-10-19T00:31:17.557Z,2.63
2022-10-19T00:33:48.051Z,3.27
2022-10-19T00:36:25.333Z,2.70
2022-10-19T00:38:54.073Z,2.47
2022-10-19T00:41:23.970Z,2.87
2022-10-19T00:44:13.973Z,2.90
2022-10-19T00:46:44.355Z,2.90
2022-10-19T00:49:18.052Z,2.77
2022-10-19T00:51:51.057Z,2.90
2022-10-19T00:54:19.226Z,3.37
2022-10-19T00:56:49.744Z,3.10
2022-10-19T00:59:20.529Z,3.63
2022-10-19T01:01:49.213Z,3.10
2022-10-19T01:04:16.561Z,3.07
2022-10-19T01:06:43.495Z,3.10
2022-10-19T01:09:10.327Z,3.27
2022-10-19T01:12:04.029Z,2.70
2022-10-19T01:14:55.116Z,3.03
2022-10-19T01:18:07.489Z,2.87
2022-10-19T01:21:08.110Z,2.73
2022-10-19T01:23:59.812Z,2.27
2022-10-19T01:27:06.359Z,2.80
2022-10-19T01:30:01.935Z,2.73
2022-10-19T01:32:52.455Z,2.70
2022-10-19T01:35:30.650Z,2.83
2022-10-19T01:38:18.296Z,2.70
2022-10-19T01:41:47.357Z,2.77
2022-10-19T01:44:27.890Z,2.87
2022-10-19T01:47:05.679Z,2.97
2022-10-19T01:49:49.624Z,2.77
2022-10-19T01:52:21.748Z,2.60
2022-10-19T01:54:54.554Z,2.60
2022-10-19T01:57:30.235Z,2.63
2022-10-19T01:59:58.246Z,2.30
2022-10-19T02:02:29.069Z,2.00
2022-10-19T02:04:57.763Z,2.23
2022-10-19T02:07:26.188Z,2.13
2022-10-19T02:09:53.099Z,2.33
2022-10-19T02:12:21.616Z,2.40
2022-10-19T02:14:55.810Z,2.20
2022-10-19T02:17:30.582Z,1.93
2022-10-19T02:19:59.296Z,2.00
2022-10-19T02:22:26.487Z,2.20
2022-10-19T02:24:53.580Z,2.10
2022-10-19T02:27:20.696Z,2.40
2022-10-19T02:29:47.763Z,2.50
2022-10-19T02:32:15.091Z,2.20
2022-10-19T02:34:42.191Z,2.10
2022-10-19T02:37:09.564Z,2.10
2022-10-19T02:42:29.092Z,2.30
2022-10-19T02:45:05.052Z,2.30
2022-10-19T02:47:46.938Z,2.30
2022-10-19T02:50:14.219Z,2.20
2022-10-19T02:52:41.927Z,2.20
2022-10-19T02:55:09.847Z,2.50
2022-10-19T02:57:37.246Z,2.60
2022-10-19T03:00:09.017Z,2.23
2022-10-19T03:02:35.893Z,2.00
2022-10-19T03:05:03.559Z,2.77
2022-10-19T03:07:30.483Z,2.50
2022-10-19T03:09:57.285Z,2.13
2022-10-19T03:12:24.069Z,2.40
2022-10-19T03:14:50.889Z,2.47
2022-10-19T03:17:17.717Z,2.77
2022-10-19T03:19:44.934Z,2.43
2022-10-19T03:22:14.850Z,2.30
2022-10-19T03:24:41.651Z,2.10
2022-10-19T03:27:08.535Z,2.20
2022-10-19T03:29:35.331Z,2.00
2022-10-19T03:32:02.203Z,2.30
2022-10-19T03:34:28.947Z,2.30
2022-10-19T03:36:56.704Z,2.37
2022-10-19T03:39:23.568Z,3.40
2022-10-19T03:41:50.544Z,4.33
2022-10-19T03:44:17.286Z,3.37
2022-10-19T03:46:44.145Z,2.97
2022-10-19T03:49:11.458Z,2.80
2022-10-19T03:51:38.205Z,2.80
2022-10-19T03:54:11.380Z,2.87
2022-10-19T03:56:38.360Z,3.10
2022-10-19T03:59:06.715Z,3.00
2022-10-19T04:01:41.770Z,2.80
2022-10-19T04:04:14.865Z,2.60
2022-10-19T04:06:45.480Z,2.87
2022-10-19T04:09:16.847Z,2.80
2022-10-19T04:11:44.383Z,2.70
2022-10-19T04:14:19.306Z,2.23
2022-10-19T04:16:54.430Z,2.40
2022-10-19T04:19:21.257Z,2.40
2022-10-19T04:21:49.577Z,2.43
2022-10-19T04:24:19.068Z,2.93
2022-10-19T04:26:52.498Z,2.50
2022-10-19T04:29:24.986Z,2.33
2022-10-19T04:31:54.918Z,2.70
2022-10-19T04:34:21.743Z,2.23
2022-10-19T04:36:48.542Z,2.30
2022-10-19T04:39:15.454Z,1.90
2022-10-19T04:41:42.288Z,2.33
2022-10-19T04:44:10.631Z,1.90
2022-10-19T04:46:38.456Z,2.13
2022-10-19T04:49:06.849Z,2.10
2022-10-19T04:51:34.493Z,1.90
2022-10-19T04:54:29.017Z,1.60
2022-10-19T04:56:55.754Z,1.90
2022-10-19T04:59:22.443Z,1.90
2022-10-19T05:01:49.154Z,1.77
2022-10-19T05:04:15.926Z,1.80
2022-10-19T05:06:42.644Z,1.80
2022-10-19T05:09:09.345Z,1.50
2022-10-19T05:11:36.166Z,1.60
2022-10-19T05:14:02.880Z,1.77
2022-10-19T05:16:29.593Z,1.80
2022-10-19T05:18:58.634Z,1.60
2022-10-19T05:21:28.670Z,1.67
2022-10-19T05:23:56.890Z,1.70
2022-10-19T05:26:27.094Z,1.60
2022-10-19T05:28:59.093Z,1.50
2022-10-19T05:31:29.055Z,1.40
2022-10-19T05:33:57.183Z,1.47
2022-10-19T05:36:34.828Z,1.40
2022-10-19T05:39:12.190Z,1.40
2022-10-19T05:41:38.961Z,1.20
2022-10-19T05:44:06.036Z,1.30
2022-10-19T05:46:34.230Z,1.20
2022-10-19T05:49:01.158Z,1.30
2022-10-19T05:51:28.586Z,1.10
2022-10-19T05:53:56.689Z,1.10
2022-10-19T05:56:30.022Z,1.20
2022-10-19T05:58:59.891Z,1.33
2022-10-19T06:01:28.945Z,1.30
2022-10-19T06:03:57.976Z,1.17
2022-10-19T06:06:26.253Z,1.30
2022-10-19T06:08:55.906Z,1.20
2022-10-19T06:11:29.731Z,1.30
2022-10-19T06:13:59.778Z,1.20
2022-10-19T06:16:28.876Z,1.10
2022-10-19T06:18:57.283Z,1.13
2022-10-19T06:21:28.571Z,1.00
2022-10-19T06:23:59.044Z,1.30
2022-10-19T06:26:27.667Z,1.23
2022-10-19T06:29:00.282Z,1.10
2022-10-19T06:31:33.237Z,1.30
2022-10-19T06:34:00.295Z,1.30
2022-10-19T06:36:30.786Z,1.33
2022-10-19T06:38:59.640Z,1.20
2022-10-19T06:41:27.460Z,1.23
2022-10-19T06:43:55.785Z,1.43
2022-10-19T06:46:25.370Z,1.33
2022-10-19T06:48:56.320Z,1.17
2022-10-19T06:51:25.305Z,1.03
2022-10-19T06:53:56.503Z,1.30
2022-10-19T06:56:25.654Z,1.30
2022-10-19T06:58:53.078Z,1.43
2022-10-19T07:01:20.111Z,1.80
2022-10-19T07:03:46.936Z,1.50
2022-10-19T07:06:14.375Z,1.50
2022-10-19T07:08:42.678Z,1.20
2022-10-19T07:11:15.311Z,1.50
2022-10-19T07:13:42.095Z,1.40
2022-10-19T07:16:19.695Z,1.43
2022-10-19T07:18:50.814Z,1.53
2022-10-19T07:21:20.953Z,1.50
2022-10-19T07:23:48.233Z,1.70
2022-10-19T07:26:28.211Z,1.40
2022-10-19T07:28:58.111Z,1.97
2022-10-19T07:31:27.219Z,1.80
2022-10-19T07:34:00.709Z,2.00
2022-10-19T07:36:30.307Z,1.97
2022-10-19T07:38:57.353Z,2.00
2022-10-19T07:41:25.893Z,1.73
2022-10-19T07:43:53.710Z,1.80
2022-10-19T07:46:25.555Z,1.50
2022-10-19T07:48:53.467Z,1.60
2022-10-19T07:51:22.070Z,1.90
2022-10-19T07:53:49.353Z,1.70
2022-10-19T07:56:24.333Z,1.70
2022-10-19T07:58:53.596Z,2.10
2022-10-19T08:01:24.199Z,2.00
2022-10-19T08:04:48.698Z,2.00
2022-10-19T08:06:40.980Z,2.23
2022-10-19T08:09:07.870Z,2.20
2022-10-19T08:11:35.582Z,1.73
2022-10-19T08:14:03.720Z,1.70
2022-10-19T08:16:40.340Z,1.70
2022-10-19T08:19:13.486Z,1.80
2022-10-19T08:21:46.236Z,1.90
2022-10-19T08:24:16.044Z,1.67
2022-10-19T08:26:43.846Z,2.07
2022-10-19T08:29:17.450Z,2.10
2022-10-19T08:31:47.129Z,2.50
2022-10-19T08:34:14.606Z,2.50
2022-10-19T08:39:14.387Z,2.50
2022-10-19T08:41:41.415Z,2.67
2022-10-19T08:44:48.700Z,2.70
2022-10-19T08:47:53.679Z,2.90
2022-10-19T08:50:36.186Z,2.93
2022-10-19T08:53:11.959Z,3.03
2022-10-19T08:56:08.718Z,2.73
2022-10-19T08:58:59.499Z,2.80
2022-10-19T09:02:10.439Z,2.97
2022-10-19T09:04:54.082Z,2.83
2022-10-19T09:07:37.205Z,3.00
2022-10-19T09:10:16.692Z,3.27
2022-10-19T09:12:59.474Z,2.80
2022-10-19T09:15:48.222Z,3.17
2022-10-19T09:18:24.830Z,2.90
2022-10-19T09:21:02.847Z,3.07
2022-10-19T09:23:55.244Z,2.97
2022-10-19T09:26:28.416Z,2.97
2022-10-19T09:29:08.344Z,2.70
2022-10-19T09:31:40.625Z,2.70
2022-10-19T09:34:22.482Z,3.20
2022-10-19T09:36:58.785Z,3.60
2022-10-19T09:39:29.648Z,3.70
2022-10-19T09:42:10.799Z,4.57
2022-10-19T09:44:38.663Z,4.37
2022-10-19T09:47:29.644Z,5.37
2022-10-19T09:50:13.515Z,3.80
2022-10-19T09:52:42.171Z,4.33
2022-10-19T09:55:14.849Z,4.53
2022-10-19T09:58:03.628Z,5.60
2022-10-19T10:00:39.239Z,4.37
2022-10-19T10:03:07.635Z,4.20
2022-10-19T10:05:39.198Z,5.70
2022-10-19T10:08:22.783Z,4.83
2022-10-19T10:11:06.949Z,6.00
2022-10-19T10:14:00.433Z,5.23
2022-10-19T10:16:30.397Z,5.20
2022-10-19T10:19:06.614Z,5.07
2022-10-19T10:21:55.600Z,4.83
2022-10-19T10:24:27.108Z,4.53
2022-10-19T10:27:06.171Z,6.30
2022-10-19T10:29:38.892Z,5.43
2022-10-19T10:32:12.964Z,4.70
2022-10-19T10:34:53.868Z,5.10
2022-10-19T10:37:37.302Z,5.00
2022-10-19T10:40:06.462Z,4.93
2022-10-19T10:42:54.778Z,5.00
2022-10-19T10:45:32.421Z,4.40
2022-10-19T10:48:19.783Z,4.17
2022-10-19T10:50:47.091Z,4.50
2022-10-19T10:53:43.152Z,3.70
2022-10-19T10:56:33.454Z,4.00
2022-10-19T10:59:23.114Z,3.93
2022-10-19T11:02:18.098Z,4.70
2022-10-19T11:05:16.128Z,4.90
2022-10-19T11:08:03.189Z,4.13
2022-10-19T11:10:49.646Z,4.47
2022-10-19T11:13:24.241Z,4.60
2022-10-19T11:16:16.095Z,4.53
2022-10-19T11:18:53.763Z,4.63
2022-10-19T11:21:47.668Z,4.87
2022-10-19T11:24:39.352Z,4.47
2022-10-19T11:27:29.695Z,5.63
2022-10-19T11:30:07.184Z,6.13
2022-10-19T11:33:03.877Z,5.37
2022-10-19T11:35:53.443Z,5.70
2022-10-19T11:39:00.686Z,5.87
2022-10-19T11:42:23.066Z,5.53
2022-10-19T11:45:28.219Z,6.10
2022-10-19T11:48:09.273Z,5.37
2022-10-19T11:51:30.712Z,6.40
2022-10-19T11:54:26.148Z,5.70
2022-10-19T11:57:11.726Z,4.70
2022-10-19T12:00:27.228Z,5.00
2022-10-19T12:03:22.526Z,5.20
2022-10-19T12:06:24.750Z,4.80
2022-10-19T12:09:03.003Z,4.97
2022-10-19T12:12:02.762Z,4.60
2022-10-19T12:14:37.143Z,3.80
2022-10-19T12:17:15.518Z,4.57
2022-10-19T12:19:53.122Z,3.80
2022-10-19T12:22:27.076Z,3.53
2022-10-19T12:24:58.098Z,3.57
2022-10-19T12:27:36.869Z,3.57
2022-10-19T12:30:23.557Z,3.57
2022-10-19T12:33:07.231Z,4.03
2022-10-19T12:36:00.874Z,3.80
2022-10-19T12:39:02.871Z,3.23
2022-10-19T12:42:10.611Z,3.37
2022-10-19T12:45:03.827Z,3.33
2022-10-19T12:47:30.545Z,3.40
2022-10-19T12:49:58.940Z,3.70
2022-10-19T12:52:48.624Z,3.80
2022-10-19T12:55:15.281Z,4.00
2022-10-19T12:57:55.787Z,3.50
2022-10-19T13:00:32.453Z,3.70
2022-10-19T13:03:14.125Z,3.33
2022-10-19T13:05:41.575Z,3.00
2022-10-19T13:08:12.262Z,2.70
2022-10-19T13:10:41.423Z,3.60
2022-10-19T13:13:55.723Z,3.00
2022-10-19T13:16:28.446Z,2.80
2022-10-19T13:19:14.645Z,2.97
2022-10-19T13:21:53.302Z,2.67
2022-10-19T13:24:34.667Z,3.40
2022-10-19T13:27:04.250Z,2.77
2022-10-19T13:29:51.284Z,3.13
2022-10-19T13:32:43.363Z,2.90
2022-10-19T13:35:28.835Z,2.93
2022-10-19T13:38:18.168Z,2.83
2022-10-19T13:40:50.800Z,2.60
2022-10-19T13:44:12.037Z,2.93
2022-10-19T13:46:51.309Z,2.50
2022-10-19T13:49:30.280Z,2.13
2022-10-19T13:52:34.057Z,2.23
2022-10-19T13:55:19.391Z,2.27
2022-10-19T13:58:13.902Z,1.83
2022-10-19T14:01:04.009Z,1.80
2022-10-19T14:03:53.803Z,1.87
2022-10-19T14:06:33.304Z,2.00
2022-10-19T14:09:27.227Z,1.90
2022-10-19T14:12:06.863Z,2.10
2022-10-19T14:14:44.253Z,1.63
2022-10-19T14:19:56.867Z,2.00
2022-10-19T14:22:33.805Z,1.63
2022-10-19T14:25:29.656Z,1.90
2022-10-19T14:28:06.711Z,1.70
2022-10-19T14:30:36.247Z,2.03
2022-10-19T14:33:10.275Z,2.00
2022-10-19T14:35:41.178Z,1.90
2022-10-19T14:38:18.231Z,1.70
2022-10-19T14:40:45.289Z,1.90
2022-10-19T14:43:25.994Z,2.00
2022-10-19T14:46:07.917Z,1.80
2022-10-19T14:48:41.658Z,2.30
2022-10-19T14:51:28.342Z,2.00
2022-10-19T14:54:22.697Z,1.93
2022-10-19T14:57:01.357Z,2.50
2022-10-19T14:59:39.383Z,1.97
2022-10-19T15:02:18.275Z,2.37
2022-10-19T15:04:46.299Z,2.40
2022-10-19T15:07:26.534Z,2.50
2022-10-19T15:09:59.171Z,2.50
2022-10-19T15:12:30.372Z,2.60
2022-10-19T15:14:58.055Z,2.73
2022-10-19T15:17:32.754Z,3.00
2022-10-19T15:20:01.265Z,2.97
2022-10-19T15:22:31.306Z,2.87
2022-10-19T15:25:24.863Z,2.50
2022-10-19T15:27:53.543Z,2.43
2022-10-19T15:30:27.999Z,2.93
2022-10-19T15:33:14.507Z,3.00
2022-10-19T15:35:44.458Z,2.90
2022-10-19T15:38:14.495Z,2.70
2022-10-19T15:40:45.468Z,3.00
2022-10-19T15:43:30.716Z,2.60
2022-10-19T15:46:13.887Z,2.70
2022-10-19T15:48:41.100Z,2.87
2022-10-19T15:51:26.260Z,3.10
2022-10-19T15:54:05.202Z,3.20
2022-10-19T15:56:36.040Z,2.70
2022-10-19T15:59:10.570Z,3.60
2022-10-19T16:01:37.553Z,3.20
2022-10-19T16:04:04.585Z,3.07
2022-10-19T16:06:34.482Z,3.43
2022-10-19T16:09:02.249Z,3.20
2022-10-19T16:11:30.923Z,3.50
2022-10-19T16:13:57.868Z,3.70
2022-10-19T16:16:32.847Z,3.93
2022-10-19T16:19:00.962Z,3.47
2022-10-19T16:21:33.758Z,4.20
2022-10-19T16:24:01.265Z,3.63
2022-10-19T16:26:28.439Z,4.03
2022-10-19T16:28:56.009Z,3.27
2022-10-19T16:31:24.024Z,4.03
2022-10-19T16:33:51.125Z,4.17
2022-10-19T16:36:20.189Z,4.23
2022-10-19T16:38:48.010Z,3.83
2022-10-19T16:41:15.713Z,3.80
2022-10-19T16:43:42.737Z,3.77
2022-10-19T16:46:09.573Z,3.80
2022-10-19T16:48:36.907Z,3.90
2022-10-19T16:51:10.277Z,4.00
2022-10-19T16:53:38.140Z,3.83
2022-10-19T16:56:13.844Z,5.10
2022-10-19T16:58:41.097Z,5.77
2022-10-19T17:01:15.950Z,6.37
2022-10-19T17:03:45.154Z,5.33
2022-10-19T17:06:13.076Z,4.50
2022-10-19T17:09:07.429Z,4.60
2022-10-19T17:11:33.885Z,4.97
2022-10-19T17:14:06.599Z,5.60
2022-10-19T17:16:36.561Z,5.87
2022-10-19T17:19:07.028Z,6.60
2022-10-19T17:21:41.916Z,23.43
2022-10-19T17:24:20.093Z,30.27
2022-10-19T17:26:50.330Z,31.23
2022-10-19T17:29:17.891Z,32.83
2022-10-19T17:31:44.957Z,24.03
2022-10-19T17:34:12.064Z,27.17
2022-10-19T17:36:44.683Z,27.33
2022-10-19T17:39:19.233Z,28.97
2022-10-19T17:41:48.517Z,27.83
2022-10-19T17:44:17.411Z,30.50
2022-10-19T17:46:44.617Z,26.37
2022-10-19T17:49:12.627Z,23.20
2022-10-19T17:51:40.114Z,24.97
2022-10-19T17:54:11.154Z,19.57
2022-10-19T17:56:38.907Z,14.87
2022-10-19T17:59:07.816Z,11.63
2022-10-19T18:01:35.238Z,12.40
2022-10-19T18:04:01.995Z,12.23
2022-10-19T18:06:31.873Z,11.77
2022-10-19T18:09:01.314Z,10.63
2022-10-19T18:11:34.396Z,11.30
2022-10-19T18:14:01.876Z,12.00
2022-10-19T18:16:33.732Z,10.80
2022-10-19T18:19:02.275Z,10.60
2022-10-19T18:21:34.476Z,11.33
2022-10-19T18:24:03.543Z,10.47
2022-10-19T18:26:33.555Z,9.70
2022-10-19T18:29:09.103Z,8.50
2022-10-19T18:31:39.494Z,7.53
2022-10-19T18:34:12.509Z,6.63
2022-10-19T18:36:39.460Z,5.43
2022-10-19T18:39:07.482Z,5.57
2022-10-19T18:41:34.459Z,6.23
2022-10-19T18:44:04.995Z,5.40
2022-10-19T18:46:34.822Z,6.30
2022-10-19T18:49:04.865Z,5.60
2022-10-19T18:51:31.948Z,6.20
2022-10-19T18:53:59.286Z,5.37
2022-10-19T18:56:26.837Z,5.63
2022-10-19T18:58:53.567Z,4.80
2022-10-19T19:01:27.186Z,5.07
2022-10-19T19:03:57.209Z,5.20
2022-10-19T19:06:30.182Z,5.67
2022-10-19T19:08:59.403Z,6.17
2022-10-19T19:11:32.950Z,6.60
2022-10-19T19:14:08.348Z,6.90
2022-10-19T19:16:37.906Z,6.97
2022-10-19T19:19:06.021Z,6.33
2022-10-19T19:21:33.313Z,6.00
2022-10-19T19:24:03.821Z,5.70
2022-10-19T19:26:37.081Z,5.73
2022-10-19T19:29:04.340Z,5.40
2022-10-19T19:31:31.401Z,6.53
2022-10-19T19:34:01.082Z,6.50
2022-10-19T19:36:29.113Z,7.20
2022-10-19T19:38:58.938Z,6.83
2022-10-19T19:41:25.780Z,6.57
2022-10-19T19:43:52.540Z,7.20
2022-10-19T19:46:20.129Z,7.40
2022-10-19T19:48:48.293Z,7.90
2022-10-19T19:51:20.717Z,8.07
2022-10-19T19:53:48.329Z,7.77
2022-10-19T19:56:17.205Z,6.93
2022-10-19T19:58:45.247Z,7.20
2022-10-19T20:01:20.986Z,6.63
2022-10-19T20:03:48.486Z,6.63
2022-10-19T20:06:22.119Z,5.63
2022-10-19T20:08:52.061Z,6.60
2022-10-19T20:11:19.138Z,5.90
2022-10-19T20:13:46.120Z,5.13
2022-10-19T20:16:21.752Z,5.73
2022-10-19T20:18:55.279Z,5.73
2022-10-19T20:21:24.232Z,5.87
2022-10-19T20:23:51.130Z,5.37
2022-10-19T20:26:21.146Z,5.47
2022-10-19T20:28:50.428Z,5.23
2022-10-19T20:31:17.695Z,5.70
2022-10-19T20:33:44.937Z,6.30
2022-10-19T20:36:21.940Z,6.10
2022-10-19T20:38:55.341Z,7.00
2022-10-19T20:41:26.164Z,6.97
2022-10-19T20:43:53.690Z,6.03
2022-10-19T20:46:27.802Z,5.73
2022-10-19T20:48:57.829Z,6.10
2022-10-19T20:51:33.924Z,4.80
2022-10-19T20:54:03.358Z,5.07
2022-10-19T20:56:34.836Z,4.97
2022-10-19T20:59:08.848Z,5.63
2022-10-19T21:01:39.567Z,4.80
2022-10-19T21:04:10.150Z,5.33
2022-10-19T21:06:43.817Z,4.87
2022-10-19T21:09:12.404Z,5.27
2022-10-19T21:11:41.506Z,5.93
2022-10-19T21:14:13.760Z,6.33
2022-10-19T21:16:41.918Z,5.70
2022-10-19T21:19:14.321Z,5.43
2022-10-19T21:21:51.709Z,5.47
2022-10-19T21:24:26.070Z,5.63
2022-10-19T21:26:53.210Z,5.67
2022-10-19T21:29:20.502Z,5.17
2022-10-19T21:31:51.737Z,5.37
2022-10-19T21:34:28.755Z,4.57
2022-10-19T21:36:56.645Z,5.67
2022-10-19T21:39:23.513Z,5.67
2022-10-19T21:41:50.997Z,5.13
2022-10-19T21:44:18.715Z,5.77
2022-10-19T21:46:47.913Z,5.27
2022-10-19T21:49:15.586Z,5.40
2022-10-19T21:51:56.294Z,6.00
2022-10-19T21:54:25.171Z,5.77
2022-10-19T21:56:53.011Z,5.50
2022-10-19T21:59:19.774Z,5.80
2022-10-19T22:01:46.600Z,6.10
2022-10-19T22:04:17.373Z,5.10
2022-10-19T22:06:44.822Z,5.50
2022-10-19T22:09:16.281Z,5.60
2022-10-19T22:11:43.897Z,6.03
2022-10-19T22:14:13.666Z,5.57
2022-10-19T22:16:41.748Z,5.67
2022-10-19T22:19:09.899Z,5.80
2022-10-19T22:24:07.894Z,5.20
2022-10-19T22:26:40.509Z,5.90
2022-10-19T22:29:08.142Z,6.07
2022-10-19T22:31:37.159Z,5.43
2022-10-19T22:34:14.247Z,5.03
2022-10-19T22:36:41.078Z,5.63
2022-10-19T22:39:08.658Z,6.10
2022-10-19T22:41:35.391Z,5.43
2022-10-19T22:44:02.245Z,5.03
2022-10-19T22:46:29.026Z,4.97
2022-10-19T22:48:55.803Z,5.30
2022-10-19T22:51:22.570Z,4.93
2022-10-19T22:53:49.261Z,5.13
2022-10-19T22:56:15.957Z,5.10
2022-10-19T22:58:42.698Z,5.17
2022-10-19T23:01:12.997Z,5.50
2022-10-19T23:03:40.910Z,5.63
2022-10-19T23:06:11.223Z,6.27
2022-10-19T23:08:38.297Z,6.00
2022-10-19T23:11:05.410Z,6.30
2022-10-19T23:13:32.614Z,5.87
2022-10-19T23:15:59.360Z,6.00
2022-10-19T23:18:26.184Z,6.70
2022-10-19T23:20:59.031Z,5.40
2022-10-19T23:23:27.711Z,5.90
2022-10-19T23:25:58.391Z,5.93
2022-10-19T23:28:25.094Z,6.27
2022-10-19T23:30:51.971Z,6.20
2022-10-19T23:33:18.724Z,5.17
2022-10-19T23:35:45.446Z,5.70
2022-10-19T23:38:12.182Z,5.90
2022-10-19T23:40:38.903Z,5.60
2022-10-19T23:43:05.747Z,5.17
2022-10-19T23:45:32.568Z,5.70
2022-10-19T23:47:59.407Z,5.13
2022-10-19T23:50:26.089Z,5.43
2022-10-19T23:52:52.780Z,5.70
2022-10-19T23:55:19.470Z,6.00
2022-10-19T23:57:46.173Z,5.90
